createdAt,value
2023-02-08T00:01:19.137Z,-6.68
2023-02-08T00:03:47.580Z,-6.68
2023-02-08T00:06:17.565Z,-6.69
2023-02-08T00:08:46.333Z,-6.70
2023-02-08T00:11:14.614Z,-6.75
2023-02-08T00:13:43.025Z,-6.72
2023-02-08T00:16:12.422Z,-6.72
2023-02-08T00:18:40.723Z,-6.73
2023-02-08T00:21:11.070Z,-6.71
2023-02-08T00:23:40.754Z,-6.72
2023-02-08T00:26:09.566Z,-6.71
2023-02-08T00:28:38.267Z,-6.73
2023-02-08T00:31:07.071Z,-6.75
2023-02-08T00:33:36.021Z,-6.76
2023-02-08T00:36:06.401Z,-6.75
2023-02-08T00:38:34.903Z,-6.79
2023-02-08T00:41:04.882Z,-6.84
2023-02-08T00:43:33.312Z,-6.86
2023-02-08T00:46:01.400Z,-6.90
2023-02-08T00:48:30.002Z,-6.93
2023-02-08T00:51:00.041Z,-6.96
2023-02-08T00:53:28.193Z,-6.92
2023-02-08T00:55:57.574Z,-6.96
2023-02-08T00:58:28.200Z,-6.95
2023-02-08T01:00:56.620Z,-6.95
2023-02-08T01:03:25.460Z,-6.95
2023-02-08T01:05:53.924Z,-6.97
2023-02-08T01:08:22.391Z,-6.98
2023-02-08T01:10:50.487Z,-6.99
2023-02-08T01:13:18.769Z,-7.10
2023-02-08T01:15:48.283Z,-7.19
2023-02-08T01:18:16.844Z,-7.16
2023-02-08T01:20:44.919Z,-7.12
2023-02-08T01:23:12.977Z,-7.16
2023-02-08T01:25:41.920Z,-7.19
2023-02-08T01:28:10.207Z,-7.20
2023-02-08T01:30:39.288Z,-7.22
2023-02-08T01:33:08.990Z,-7.24
2023-02-08T01:35:37.100Z,-7.24
2023-02-08T01:38:05.903Z,-7.27
2023-02-08T01:40:33.965Z,-7.29
2023-02-08T01:43:02.038Z,-7.30
2023-02-08T01:45:32.011Z,-7.36
2023-02-08T01:48:05.951Z,-7.32
2023-02-08T01:50:43.000Z,-7.38
2023-02-08T01:53:11.939Z,-7.39
2023-02-08T01:55:44.308Z,-7.43
2023-02-08T01:58:15.651Z,-7.46
2023-02-08T02:00:44.015Z,-7.38
2023-02-08T02:03:14.589Z,-7.37
2023-02-08T02:05:46.719Z,-7.45
2023-02-08T02:08:15.108Z,-7.49
2023-02-08T02:10:44.916Z,-7.48
2023-02-08T02:13:15.563Z,-7.49
2023-02-08T02:15:46.130Z,-7.46
2023-02-08T02:18:19.158Z,-7.50
2023-02-08T02:21:04.343Z,-7.54
2023-02-08T02:24:06.828Z,-7.55
2023-02-08T02:27:13.903Z,-7.55
2023-02-08T02:30:24.761Z,-7.70
2023-02-08T02:33:06.903Z,-7.66
2023-02-08T02:35:45.197Z,-7.70
2023-02-08T02:38:21.857Z,-7.73
2023-02-08T02:41:08.108Z,-7.72
2023-02-08T02:43:46.487Z,-7.67
2023-02-08T02:46:26.043Z,-7.66
2023-02-08T02:49:03.462Z,-7.71
2023-02-08T02:51:41.253Z,-7.69
2023-02-08T02:54:15.720Z,-7.76
2023-02-08T02:56:46.885Z,-7.78
2023-02-08T02:59:17.099Z,-7.78
2023-02-08T03:01:47.536Z,-7.78
2023-02-08T03:04:19.191Z,-7.77
2023-02-08T03:07:01.766Z,-7.85
2023-02-08T03:09:46.849Z,-7.87
2023-02-08T03:12:29.283Z,-7.93
2023-02-08T03:15:06.427Z,-7.88
2023-02-08T03:17:51.349Z,-7.92
2023-02-08T03:20:26.159Z,-7.93
2023-02-08T03:23:02.293Z,-7.93
2023-02-08T03:25:37.910Z,-7.94
2023-02-08T03:28:12.974Z,-7.98
2023-02-08T03:30:51.392Z,-7.97
2023-02-08T03:33:26.863Z,-7.99
2023-02-08T03:36:03.296Z,-8.04
2023-02-08T03:38:35.819Z,-8.02
2023-02-08T03:41:07.751Z,-8.03
2023-02-08T03:43:41.336Z,-8.00
2023-02-08T03:46:13.122Z,-8.02
2023-02-08T03:48:47.545Z,-7.98
2023-02-08T03:51:17.960Z,-8.07
2023-02-08T03:53:48.172Z,-8.09
2023-02-08T03:56:21.998Z,-8.01
2023-02-08T03:58:57.626Z,-8.05
2023-02-08T04:01:31.599Z,-8.04
2023-02-08T04:04:01.129Z,-8.04
2023-02-08T04:06:30.984Z,-8.07
2023-02-08T04:08:59.151Z,-8.05
2023-02-08T04:11:27.229Z,-8.03
2023-02-08T04:13:55.355Z,-8.09
2023-02-08T04:16:23.477Z,-8.07
2023-02-08T04:18:51.574Z,-8.07
2023-02-08T04:21:19.653Z,-8.09
2023-02-08T04:23:49.167Z,-8.13
2023-02-08T04:26:17.240Z,-8.12
2023-02-08T04:28:45.336Z,-8.14
2023-02-08T04:31:13.509Z,-8.18
2023-02-08T04:33:41.691Z,-8.20
2023-02-08T04:36:10.735Z,-8.19
2023-02-08T04:38:38.914Z,-8.22
2023-02-08T04:41:08.567Z,-8.28
2023-02-08T04:43:36.838Z,-8.23
2023-02-08T04:46:05.352Z,-8.22
2023-02-08T04:48:33.552Z,-8.29
2023-02-08T04:51:01.785Z,-8.26
2023-02-08T04:53:29.998Z,-8.25
2023-02-08T04:55:58.122Z,-8.25
2023-02-08T04:58:27.619Z,-8.18
2023-02-08T05:00:55.788Z,-8.11
2023-02-08T05:03:24.110Z,-8.05
2023-02-08T05:05:58.734Z,-7.97
2023-02-08T05:08:27.584Z,-7.87
2023-02-08T05:10:56.128Z,-7.77
2023-02-08T05:13:24.315Z,-7.64
2023-02-08T05:15:54.183Z,-7.53
2023-02-08T05:18:22.428Z,-7.35
2023-02-08T05:20:56.143Z,-7.23
2023-02-08T05:23:24.301Z,-7.13
2023-02-08T05:25:52.816Z,-7.00
2023-02-08T05:28:21.184Z,-6.96
2023-02-08T05:30:49.518Z,-6.77
2023-02-08T05:33:19.685Z,-6.69
2023-02-08T05:35:47.815Z,-6.58
2023-02-08T05:38:16.138Z,-6.51
2023-02-08T05:40:44.233Z,-6.45
2023-02-08T05:43:12.367Z,-6.34
2023-02-08T05:45:40.494Z,-6.28
2023-02-08T05:48:08.710Z,-6.19
2023-02-08T05:50:38.329Z,-6.12
2023-02-08T05:53:06.573Z,-6.05
2023-02-08T05:55:34.788Z,-6.00
2023-02-08T05:58:02.993Z,-5.94
2023-02-08T06:00:31.096Z,-5.87
2023-02-08T06:02:59.681Z,-5.87
2023-02-08T06:05:27.772Z,-5.84
2023-02-08T06:07:57.499Z,-5.79
2023-02-08T06:10:25.686Z,-5.80
2023-02-08T06:12:53.903Z,-5.68
2023-02-08T06:15:22.064Z,-5.65
2023-02-08T06:17:50.259Z,-5.55
2023-02-08T06:20:18.829Z,-5.53
2023-02-08T06:22:46.980Z,-5.45
2023-02-08T06:25:16.676Z,-5.43
2023-02-08T06:27:44.806Z,-5.37
2023-02-08T06:30:13.615Z,-5.37
2023-02-08T06:32:41.741Z,-5.31
2023-02-08T06:35:10.313Z,-5.41
2023-02-08T06:37:38.848Z,-5.47
2023-02-08T06:40:07.943Z,-5.36
2023-02-08T06:42:37.521Z,-5.29
2023-02-08T06:45:08.375Z,-5.27
2023-02-08T06:47:36.772Z,-5.33
2023-02-08T06:50:05.233Z,-5.31
2023-02-08T06:52:33.362Z,-5.24
2023-02-08T06:55:01.530Z,-5.19
2023-02-08T06:57:29.727Z,-5.12
2023-02-08T06:59:59.220Z,-5.09
2023-02-08T07:02:27.813Z,-5.14
2023-02-08T07:04:55.986Z,-5.04
2023-02-08T07:07:24.159Z,-4.98
2023-02-08T07:09:52.315Z,-4.98
2023-02-08T07:12:20.416Z,-5.00
2023-02-08T07:14:48.537Z,-4.97
2023-02-08T07:17:18.064Z,-4.94
2023-02-08T07:19:46.205Z,-4.93
2023-02-08T07:22:14.318Z,-4.79
2023-02-08T07:24:43.024Z,-4.73
2023-02-08T07:27:13.148Z,-4.65
2023-02-08T07:29:41.593Z,-4.57
2023-02-08T07:32:11.604Z,-4.45
2023-02-08T07:34:41.537Z,-4.46
2023-02-08T07:37:09.682Z,-4.37
2023-02-08T07:39:37.898Z,-4.28
2023-02-08T07:42:07.412Z,-4.32
2023-02-08T07:44:42.544Z,-4.07
2023-02-08T07:47:10.913Z,-3.90
2023-02-08T07:49:39.049Z,-3.62
2023-02-08T07:52:08.607Z,-3.29
2023-02-08T07:54:36.733Z,-3.14
2023-02-08T07:57:05.062Z,-3.05
2023-02-08T07:59:33.234Z,-2.99
2023-02-08T08:02:01.419Z,-2.85
2023-02-08T08:04:29.570Z,-2.88
2023-02-08T08:06:57.708Z,-2.92
2023-02-08T08:09:27.321Z,-2.78
2023-02-08T08:11:55.470Z,-2.72
2023-02-08T08:14:23.662Z,-2.46
2023-02-08T08:16:51.804Z,-2.21
2023-02-08T08:19:19.951Z,-2.43
2023-02-08T08:21:48.064Z,-1.94
2023-02-08T08:24:16.216Z,-1.94
2023-02-08T08:26:45.737Z,-1.73
2023-02-08T08:29:14.400Z,-1.68
2023-02-08T08:31:44.380Z,-1.68
2023-02-08T08:34:12.605Z,-1.66
2023-02-08T08:36:40.749Z,-1.48
2023-02-08T08:39:08.968Z,-1.71
2023-02-08T08:41:37.356Z,-1.84
2023-02-08T08:44:07.251Z,-1.85
2023-02-08T08:46:35.462Z,-1.62
2023-02-08T08:49:03.619Z,-1.65
2023-02-08T08:51:35.291Z,-1.62
2023-02-08T08:54:03.697Z,-1.71
2023-02-08T08:56:31.845Z,-1.87
2023-02-08T08:59:00.577Z,-1.49
2023-02-08T09:01:31.425Z,-0.42
2023-02-08T09:04:00.492Z,0.15
2023-02-08T09:06:28.721Z,0.50
2023-02-08T09:08:56.853Z,0.73
2023-02-08T09:11:25.191Z,0.50
2023-02-08T09:13:56.163Z,0.87
2023-02-08T09:16:25.722Z,1.07
2023-02-08T09:18:55.352Z,1.39
2023-02-08T09:21:25.924Z,1.66
2023-02-08T09:23:54.119Z,1.63
2023-02-08T09:26:22.972Z,1.51
2023-02-08T09:28:51.089Z,1.64
2023-02-08T09:31:21.845Z,1.17
2023-02-08T09:33:51.166Z,1.39
2023-02-08T09:36:21.604Z,1.87
2023-02-08T09:38:50.873Z,2.03
2023-02-08T09:41:34.246Z,2.13
2023-02-08T09:44:16.974Z,2.46
2023-02-08T09:46:53.410Z,2.23
2023-02-08T09:49:27.683Z,1.72
2023-02-08T09:52:01.807Z,1.16
2023-02-08T09:54:34.534Z,1.37
2023-02-08T09:57:07.221Z,1.68
2023-02-08T09:59:36.592Z,1.33
2023-02-08T10:02:18.728Z,1.35
2023-02-08T10:04:58.052Z,2.18
2023-02-08T10:07:28.770Z,1.78
2023-02-08T10:10:00.417Z,2.32
2023-02-08T10:12:39.269Z,2.35
2023-02-08T10:15:22.323Z,2.53
2023-02-08T10:18:02.307Z,1.87
2023-02-08T10:20:41.700Z,1.93
2023-02-08T10:23:24.731Z,1.75
2023-02-08T10:26:07.883Z,2.12
2023-02-08T10:28:50.854Z,2.25
2023-02-08T10:31:30.697Z,2.41
2023-02-08T10:34:03.639Z,2.55
2023-02-08T10:36:36.412Z,2.26
2023-02-08T10:39:16.202Z,2.18
2023-02-08T10:41:45.825Z,1.91
2023-02-08T10:44:28.162Z,1.54
2023-02-08T10:47:10.015Z,1.50
2023-02-08T10:49:44.129Z,1.41
2023-02-08T10:52:12.439Z,1.48
2023-02-08T10:54:42.073Z,1.64
2023-02-08T10:57:16.877Z,1.51
2023-02-08T10:59:50.967Z,1.44
2023-02-08T11:02:23.878Z,1.29
2023-02-08T11:05:00.186Z,1.47
2023-02-08T11:07:28.489Z,1.59
2023-02-08T11:10:15.935Z,1.46
2023-02-08T11:12:54.755Z,1.46
2023-02-08T11:15:26.347Z,1.27
2023-02-08T11:17:58.121Z,1.35
2023-02-08T11:20:32.585Z,0.98
2023-02-08T11:23:01.048Z,0.88
2023-02-08T11:25:37.239Z,0.86
2023-02-08T11:28:06.671Z,1.11
2023-02-08T11:30:34.890Z,0.90
2023-02-08T11:33:19.598Z,0.66
2023-02-08T11:36:08.392Z,0.68
2023-02-08T11:38:38.054Z,0.94
2023-02-08T11:41:19.002Z,1.24
2023-02-08T11:43:58.463Z,1.11
2023-02-08T11:46:28.875Z,1.31
2023-02-08T11:48:57.722Z,1.38
2023-02-08T11:51:30.499Z,1.24
2023-02-08T11:54:01.669Z,1.44
2023-02-08T11:56:33.326Z,1.60
2023-02-08T11:59:18.315Z,1.63
2023-02-08T12:01:46.769Z,1.25
2023-02-08T12:04:17.422Z,1.23
2023-02-08T12:07:10.240Z,1.34
2023-02-08T12:10:12.036Z,1.64
2023-02-08T12:12:58.246Z,1.71
2023-02-08T12:15:51.342Z,1.46
2023-02-08T12:18:45.551Z,1.61
2023-02-08T12:21:19.251Z,1.24
2023-02-08T12:23:54.316Z,1.11
2023-02-08T12:26:35.469Z,1.48
2023-02-08T12:29:38.432Z,1.29
2023-02-08T12:32:32.862Z,1.18
2023-02-08T12:35:43.295Z,1.15
2023-02-08T12:38:44.787Z,1.44
2023-02-08T12:41:22.634Z,1.48
2023-02-08T12:44:02.348Z,1.53
2023-02-08T12:47:00.846Z,1.40
2023-02-08T12:49:46.907Z,1.59
2023-02-08T12:52:26.280Z,1.79
2023-02-08T12:54:58.972Z,1.93
2023-02-08T12:57:31.897Z,1.74
2023-02-08T13:00:04.340Z,2.05
2023-02-08T13:02:44.791Z,1.90
2023-02-08T13:05:18.887Z,1.92
2023-02-08T13:07:50.522Z,1.84
2023-02-08T13:10:27.936Z,1.62
2023-02-08T13:12:59.372Z,1.92
2023-02-08T13:15:36.892Z,1.86
2023-02-08T13:18:15.733Z,1.77
2023-02-08T13:20:47.191Z,2.12
2023-02-08T13:23:22.285Z,2.06
2023-02-08T13:25:53.415Z,2.16
2023-02-08T13:28:24.050Z,2.35
2023-02-08T13:30:59.875Z,3.09
2023-02-08T13:33:36.912Z,3.45
2023-02-08T13:36:06.347Z,3.73
2023-02-08T13:38:37.486Z,4.41
2023-02-08T13:41:09.620Z,4.25
2023-02-08T13:43:42.962Z,4.07
2023-02-08T13:46:12.614Z,3.55
2023-02-08T13:48:50.895Z,3.83
2023-02-08T13:52:02.324Z,4.15
2023-02-08T13:54:30.665Z,4.24
2023-02-08T13:56:58.918Z,4.18
2023-02-08T13:59:34.213Z,3.80
2023-02-08T14:02:27.059Z,4.00
2023-02-08T14:05:20.588Z,4.19
2023-02-08T14:07:49.995Z,4.39
2023-02-08T14:10:37.540Z,4.55
2023-02-08T14:13:18.538Z,4.34
2023-02-08T14:15:47.898Z,4.12
2023-02-08T14:18:25.574Z,3.94
2023-02-08T14:21:03.238Z,3.85
2023-02-08T14:23:33.642Z,3.70
2023-02-08T14:26:10.643Z,3.74
2023-02-08T14:28:44.001Z,3.55
2023-02-08T14:31:14.187Z,3.49
2023-02-08T14:33:45.051Z,3.10
2023-02-08T14:36:28.866Z,2.74
2023-02-08T14:39:24.518Z,2.29
2023-02-08T14:41:57.299Z,2.39
2023-02-08T14:45:03.605Z,2.55
2023-02-08T14:48:17.702Z,2.52
2023-02-08T14:51:16.626Z,2.49
2023-02-08T14:53:50.766Z,2.84
2023-02-08T14:56:23.785Z,2.47
2023-02-08T14:58:56.431Z,2.57
2023-02-08T15:01:34.848Z,2.55
2023-02-08T15:04:04.077Z,2.60
2023-02-08T15:06:59.714Z,2.37
2023-02-08T15:09:33.602Z,2.14
2023-02-08T15:12:05.255Z,3.53
2023-02-08T15:14:36.878Z,4.66
2023-02-08T15:17:05.293Z,5.19
2023-02-08T15:19:37.867Z,5.57
2023-02-08T15:22:20.497Z,5.25
2023-02-08T15:24:55.182Z,3.51
2023-02-08T15:27:25.324Z,2.81
2023-02-08T15:29:53.845Z,2.19
2023-02-08T15:32:26.649Z,1.64
2023-02-08T15:34:56.726Z,1.34
2023-02-08T15:37:25.824Z,1.17
2023-02-08T15:39:58.038Z,1.24
2023-02-08T15:42:28.937Z,1.02
2023-02-08T15:44:57.689Z,0.63
2023-02-08T15:47:29.763Z,0.45
2023-02-08T15:49:59.744Z,0.57
2023-02-08T15:52:36.257Z,0.41
2023-02-08T15:55:08.157Z,0.20
2023-02-08T15:57:40.651Z,0.05
2023-02-08T16:00:16.849Z,0.03
2023-02-08T16:02:46.046Z,-0.08
2023-02-08T16:05:22.000Z,-0.09
2023-02-08T16:07:51.870Z,-0.01
2023-02-08T16:10:31.407Z,0.01
2023-02-08T16:13:02.189Z,0.00
2023-02-08T16:15:38.832Z,-0.02
2023-02-08T16:18:07.761Z,0.02
2023-02-08T16:20:37.270Z,0.02
2023-02-08T16:23:24.743Z,-0.02
2023-02-08T16:25:54.623Z,-0.10
2023-02-08T16:28:28.052Z,-0.11
2023-02-08T16:30:58.111Z,-0.11
2023-02-08T16:33:27.094Z,-0.09
2023-02-08T16:36:01.916Z,-0.15
2023-02-08T16:38:32.199Z,-0.07
2023-02-08T16:41:13.163Z,-0.25
2023-02-08T16:43:44.065Z,-0.24
2023-02-08T16:46:25.513Z,-0.25
2023-02-08T16:48:55.733Z,-0.26
2023-02-08T16:51:26.799Z,-0.29
2023-02-08T16:53:57.662Z,-0.33
2023-02-08T16:56:27.975Z,-0.32
2023-02-08T16:58:56.574Z,-0.39
2023-02-08T17:01:25.564Z,-0.38
2023-02-08T17:03:54.844Z,-0.46
2023-02-08T17:06:30.048Z,-0.46
2023-02-08T17:08:59.191Z,-0.49
2023-02-08T17:11:30.706Z,-0.44
2023-02-08T17:14:00.751Z,-0.44
2023-02-08T17:16:32.515Z,-0.42
2023-02-08T17:19:01.916Z,-0.37
2023-02-08T17:21:31.345Z,-0.34
2023-02-08T17:24:00.251Z,-0.37
2023-02-08T17:26:33.217Z,-0.32
2023-02-08T17:29:02.157Z,-0.32
2023-02-08T17:31:31.254Z,-0.40
2023-02-08T17:34:05.161Z,-0.43
2023-02-08T17:36:35.652Z,-0.45
2023-02-08T17:39:08.463Z,-0.46
2023-02-08T17:41:41.002Z,-0.46
2023-02-08T17:44:11.026Z,-0.51
2023-02-08T17:46:40.028Z,-0.54
2023-02-08T17:49:09.326Z,-0.52
2023-02-08T17:51:38.124Z,-0.58
2023-02-08T17:54:07.012Z,-0.60
2023-02-08T17:56:37.390Z,-0.63
2023-02-08T17:59:08.177Z,-0.66
2023-02-08T18:01:37.347Z,-0.64
2023-02-08T18:04:09.587Z,-0.58
2023-02-08T18:06:39.109Z,-0.64
2023-02-08T18:09:08.318Z,-0.71
2023-02-08T18:11:36.797Z,-0.73
2023-02-08T18:14:07.167Z,-0.70
2023-02-08T18:16:37.029Z,-0.70
2023-02-08T18:19:07.595Z,-0.74
2023-02-08T18:21:36.935Z,-0.70
2023-02-08T18:24:07.944Z,-0.70
2023-02-08T18:26:37.897Z,-0.63
2023-02-08T18:29:10.366Z,-0.75
2023-02-08T18:31:41.138Z,-0.76
2023-02-08T18:34:10.059Z,-0.79
2023-02-08T18:36:39.518Z,-0.80
2023-02-08T18:39:09.003Z,-0.85
2023-02-08T18:41:38.545Z,-0.76
2023-02-08T18:44:12.536Z,-0.74
2023-02-08T18:46:42.027Z,-0.70
2023-02-08T18:49:13.533Z,-0.66
2023-02-08T18:51:44.939Z,-0.70
2023-02-08T18:54:15.742Z,-0.82
2023-02-08T18:56:47.128Z,-0.80
2023-02-08T18:59:20.684Z,-0.80
2023-02-08T19:01:50.130Z,-0.81
2023-02-08T19:04:22.021Z,-0.80
2023-02-08T19:06:51.756Z,-0.87
2023-02-08T19:09:21.784Z,-0.77
2023-02-08T19:11:52.314Z,-0.81
2023-02-08T19:14:23.419Z,-0.89
2023-02-08T19:16:53.267Z,-0.90
2023-02-08T19:19:23.649Z,-0.95
2023-02-08T19:21:53.157Z,-0.98
2023-02-08T19:24:22.504Z,-0.98
2023-02-08T19:26:53.563Z,-1.02
2023-02-08T19:29:24.941Z,-1.06
2023-02-08T19:31:57.843Z,-0.99
2023-02-08T19:34:30.320Z,-0.95
2023-02-08T19:37:00.108Z,-0.92
2023-02-08T19:39:29.795Z,-0.90
2023-02-08T19:42:00.363Z,-0.94
2023-02-08T19:44:32.076Z,-0.96
2023-02-08T19:47:01.896Z,-1.02
2023-02-08T19:49:32.841Z,-1.09
2023-02-08T19:52:05.415Z,-1.05
2023-02-08T19:54:35.045Z,-1.10
2023-02-08T19:57:04.931Z,-1.12
2023-02-08T19:59:40.062Z,-1.07
2023-02-08T20:02:15.840Z,-1.02
2023-02-08T20:04:47.111Z,-1.06
2023-02-08T20:07:16.853Z,-0.97
2023-02-08T20:09:46.995Z,-0.97
2023-02-08T20:12:16.832Z,-1.02
2023-02-08T20:14:48.576Z,-1.00
2023-02-08T20:17:18.691Z,-1.03
2023-02-08T20:19:47.818Z,-1.10
2023-02-08T20:22:21.071Z,-1.12
2023-02-08T20:24:50.353Z,-1.13
2023-02-08T20:27:26.080Z,-1.09
2023-02-08T20:29:59.892Z,-1.12
2023-02-08T20:32:32.152Z,-1.17
2023-02-08T20:35:01.146Z,-1.11
2023-02-08T20:37:31.465Z,-1.18
2023-02-08T20:40:01.647Z,-1.10
2023-02-08T20:42:31.453Z,-1.02
2023-02-08T20:45:04.810Z,-1.14
2023-02-08T20:47:45.993Z,-1.22
2023-02-08T20:50:19.601Z,-1.21
2023-02-08T20:52:49.968Z,-1.24
2023-02-08T20:55:19.878Z,-1.24
2023-02-08T20:57:49.014Z,-1.18
2023-02-08T21:00:24.205Z,-1.27
2023-02-08T21:02:56.886Z,-1.14
2023-02-08T21:05:26.493Z,-1.17
2023-02-08T21:07:55.868Z,-1.20
2023-02-08T21:10:25.240Z,-1.22
2023-02-08T21:12:55.176Z,-1.18
2023-02-08T21:15:25.921Z,-1.24
2023-02-08T21:17:54.470Z,-1.31
2023-02-08T21:20:22.947Z,-1.36
2023-02-08T21:22:52.040Z,-1.28
2023-02-08T21:25:20.645Z,-1.34
2023-02-08T21:27:48.803Z,-1.35
2023-02-08T21:30:19.846Z,-1.30
2023-02-08T21:32:50.614Z,-1.28
2023-02-08T21:35:18.894Z,-1.24
2023-02-08T21:37:47.069Z,-1.24
2023-02-08T21:40:15.304Z,-1.10
2023-02-08T21:42:43.531Z,-1.06
2023-02-08T21:45:12.336Z,-1.27
2023-02-08T21:47:41.798Z,-1.24
2023-02-08T21:50:29.038Z,-1.37
2023-02-08T21:53:14.350Z,-1.37
2023-02-08T21:55:46.560Z,-1.35
2023-02-08T21:58:15.140Z,-1.39
2023-02-08T22:00:43.546Z,-1.45
2023-02-08T22:03:11.821Z,-1.55
2023-02-08T22:05:58.812Z,-1.60
2023-02-08T22:08:27.047Z,-1.57
2023-02-08T22:10:58.296Z,-1.57
2023-02-08T22:13:26.925Z,-1.60
2023-02-08T22:15:55.119Z,-1.64
2023-02-08T22:18:23.323Z,-1.68
2023-02-08T22:20:54.304Z,-1.70
2023-02-08T22:23:22.605Z,-1.75
2023-02-08T22:25:50.696Z,-1.77
2023-02-08T22:28:18.834Z,-1.79
2023-02-08T22:30:49.220Z,-1.73
2023-02-08T22:33:17.594Z,-1.70
2023-02-08T22:35:45.690Z,-1.67
2023-02-08T22:38:15.211Z,-1.67
2023-02-08T22:40:43.709Z,-1.61
2023-02-08T22:43:12.066Z,-1.52
2023-02-08T22:45:40.195Z,-1.54
2023-02-08T22:48:08.299Z,-1.63
2023-02-08T22:50:38.256Z,-1.63
2023-02-08T22:53:06.355Z,-1.73
2023-02-08T22:55:35.887Z,-1.71
2023-02-08T22:58:04.015Z,-1.73
2023-02-08T23:00:32.192Z,-1.63
2023-02-08T23:03:00.375Z,-1.47
2023-02-08T23:05:28.581Z,-1.59
2023-02-08T23:07:56.692Z,-1.65
2023-02-08T23:10:24.754Z,-1.70
2023-02-08T23:12:54.279Z,-1.76
2023-02-08T23:15:22.617Z,-1.78
2023-02-08T23:17:50.791Z,-1.79
2023-02-08T23:20:19.286Z,-1.76
2023-02-08T23:22:47.436Z,-1.77
2023-02-08T23:25:15.892Z,-1.91
2023-02-08T23:27:44.074Z,-1.91
2023-02-08T23:30:14.365Z,-1.91
2023-02-08T23:32:42.692Z,-2.00
2023-02-08T23:35:11.477Z,-1.96
2023-02-08T23:37:39.922Z,-1.93
2023-02-08T23:40:09.297Z,-1.91
2023-02-08T23:42:37.431Z,-1.93
2023-02-08T23:45:06.493Z,-1.87
2023-02-08T23:47:36.556Z,-1.96
2023-02-08T23:50:04.849Z,-1.90
2023-02-08T23:52:33.171Z,-2.17
2023-02-08T23:55:01.295Z,-2.19
2023-02-08T23:57:33.765Z,-2.22
